Time;durP1;ratioP1;P1;durP2;ratioP2;P2;SDS_P1;SDS_P2;PMS_P1;PMS_P2;Temp;Humidity;BMP_temperature;BMP_pressure;BME280_temperature;BME280_humidity;BME280_pressure;Samples;Min_cycle;Max_cycle;Signal;HPM_P1;HPM_P2
2021/09/05 00:01:03;;;;;;;10.77;4.50;;;12.90;99.90;;;;;;4125362;28;20545;-66
2021/09/05 00:03:04;;;;;;;8.37;4.70;;;12.90;99.90;;;;;;4125108;28;20023;-66
2021/09/05 00:05:05;;;;;;;7.03;4.43;;;12.90;99.90;;;;;;4125140;28;20038;-66
2021/09/05 00:07:07;;;;;;;6.43;4.33;;;12.90;99.90;;;;;;4125403;28;20599;-65
2021/09/05 00:09:08;;;;;;;10.60;4.53;;;12.80;99.90;;;;;;4124364;28;20042;-65
2021/09/05 00:11:10;;;;;;;8.30;4.47;;;12.90;99.90;;;;;;4124449;28;20035;-65
2021/09/05 00:13:11;;;;;;;7.90;4.83;;;12.80;99.90;;;;;;4124748;28;20097;-65
2021/09/05 00:15:14;;;;;;;7.30;4.63;;;12.80;99.90;;;;;;4125434;28;20077;-65
2021/09/05 00:17:16;;;;;;;6.23;4.30;;;12.80;99.90;;;;;;4124873;28;20026;-65
2021/09/05 00:19:17;;;;;;;6.17;4.10;;;12.70;99.90;;;;;;4125270;28;20027;-64
2021/09/05 00:21:18;;;;;;;6.70;4.87;;;12.70;99.90;;;;;;4124071;28;20431;-65
2021/09/05 00:23:19;;;;;;;7.73;5.17;;;12.70;99.90;;;;;;4125506;28;20081;-65
2021/09/05 00:25:20;;;;;;;10.70;4.97;;;12.70;99.90;;;;;;4123950;28;20089;-65
2021/09/05 00:27:22;;;;;;;6.60;4.60;;;12.70;99.90;;;;;;4125120;28;20030;-66
2021/09/05 00:29:25;;;;;;;5.87;4.47;;;12.70;99.90;;;;;;4124114;28;20100;-65
2021/09/05 00:31:26;;;;;;;6.87;4.33;;;12.70;99.90;;;;;;4125185;28;20038;-64
2021/09/05 00:33:28;;;;;;;6.17;4.53;;;12.70;99.90;;;;;;4124236;28;20038;-65
2021/09/05 00:35:29;;;;;;;6.57;4.40;;;12.70;99.90;;;;;;4124930;28;20500;-65
2021/09/05 00:37:30;;;;;;;6.83;4.13;;;12.70;99.90;;;;;;4124560;28;20446;-65
2021/09/05 00:39:31;;;;;;;5.43;4.23;;;12.70;99.90;;;;;;4124481;28;20081;-64
2021/09/05 00:41:32;;;;;;;8.10;4.43;;;12.70;99.90;;;;;;4124772;28;20782;-64
2021/09/05 00:43:53;;;;;;;7.00;4.33;;;12.70;99.90;;;;;;4124333;28;20034;-65
2021/09/05 00:45:54;;;;;;;8.02;4.63;;;12.60;99.90;;;;;;4125209;28;20864;-64
2021/09/05 00:47:55;;;;;;;6.17;4.37;;;12.60;99.90;;;;;;4124272;28;20050;-64
2021/09/05 00:49:56;;;;;;;8.57;5.00;;;12.60;99.90;;;;;;4125718;28;20100;-65
2021/09/05 00:51:57;;;;;;;6.00;4.03;;;12.50;99.90;;;;;;4124169;28;20491;-65
2021/09/05 00:54:00;;;;;;;9.07;4.27;;;12.50;99.90;;;;;;4124810;28;20088;-65
2021/09/05 00:56:01;;;;;;;6.20;4.43;;;12.50;99.90;;;;;;4124136;28;20049;-65
2021/09/05 00:58:02;;;;;;;7.67;4.33;;;12.50;99.90;;;;;;4125390;28;20042;-65
2021/09/05 01:00:04;;;;;;;7.63;4.27;;;12.50;99.90;;;;;;4138448;28;20510;-64
2021/09/05 01:02:06;;;;;;;7.97;4.77;;;12.50;99.90;;;;;;4125447;28;20050;-66
2021/09/05 01:04:08;;;;;;;6.13;4.20;;;12.50;99.90;;;;;;4123713;28;20093;-65
2021/09/05 01:06:09;;;;;;;6.77;4.40;;;12.50;99.90;;;;;;4125264;28;20030;-65
2021/09/05 01:08:10;;;;;;;7.07;4.47;;;12.50;99.90;;;;;;4123464;28;20458;-65
2021/09/05 01:10:12;;;;;;;7.43;4.40;;;12.50;99.90;;;;;;4124946;28;20034;-65
2021/09/05 01:12:13;;;;;;;6.90;4.40;;;12.40;99.90;;;;;;4124408;28;20026;-65
2021/09/05 01:14:15;;;;;;;7.50;4.73;;;12.40;99.90;;;;;;4124633;28;20034;-65
2021/09/05 01:16:32;;;;;;;7.10;4.30;;;12.40;99.90;;;;;;4124670;28;20026;-66
2021/09/05 01:18:33;;;;;;;7.23;4.53;;;12.40;99.90;;;;;;4124371;28;20034;-66
2021/09/05 01:20:34;;;;;;;7.00;4.40;;;12.40;99.90;;;;;;4124358;28;20789;-66
2021/09/05 01:22:36;;;;;;;9.20;4.97;;;12.40;99.90;;;;;;4123850;28;20967;-64
2021/09/05 01:24:37;;;;;;;8.60;4.67;;;12.30;99.90;;;;;;4124543;28;20038;-65
2021/09/05 01:26:41;;;;;;;10.40;4.97;;;12.30;99.90;;;;;;4123484;28;20089;-66
2021/09/05 01:28:42;;;;;;;6.03;4.10;;;12.30;99.90;;;;;;4124954;28;20100;-65
2021/09/05 01:30:43;;;;;;;6.53;4.20;;;12.30;99.90;;;;;;4123591;28;20085;-66
2021/09/05 01:32:44;;;;;;;5.60;4.57;;;12.20;99.90;;;;;;4124857;28;20085;-65
2021/09/05 01:34:46;;;;;;;5.47;4.57;;;12.30;99.90;;;;;;4123854;28;20914;-65
2021/09/05 01:36:48;;;;;;;6.53;4.40;;;12.30;99.90;;;;;;4124910;28;20034;-66
2021/09/05 01:38:49;;;;;;;6.97;4.20;;;12.20;99.90;;;;;;4123477;28;20030;-65
2021/09/05 01:40:50;;;;;;;9.57;4.67;;;12.20;99.90;;;;;;4124395;28;20042;-65
2021/09/05 01:42:51;;;;;;;7.33;4.47;;;12.20;99.90;;;;;;4122308;28;20082;-65
2021/09/05 01:44:53;;;;;;;5.87;3.83;;;12.20;99.90;;;;;;4124354;28;20067;-65
2021/09/05 01:46:54;;;;;;;9.37;4.23;;;12.10;99.90;;;;;;4124387;28;20085;-65
2021/09/05 01:48:55;;;;;;;6.07;3.77;;;12.10;99.90;;;;;;4124264;28;20781;-65
2021/09/05 01:50:58;;;;;;;5.27;3.47;;;12.10;99.90;;;;;;4124746;28;20100;-65
2021/09/05 01:52:59;;;;;;;5.37;3.97;;;12.10;99.90;;;;;;4126646;28;20050;-65
2021/09/05 01:55:00;;;;;;;7.07;4.13;;;12.10;99.90;;;;;;4127845;28;20077;-65
2021/09/05 01:57:03;;;;;;;6.63;4.00;;;12.10;99.90;;;;;;4126554;28;20090;-65
2021/09/05 01:59:05;;;;;;;5.80;4.00;;;12.00;99.90;;;;;;4127550;28;20050;-65
2021/09/05 02:01:07;;;;;;;6.83;3.90;;;12.10;99.90;;;;;;4126678;28;20418;-65
2021/09/05 02:03:08;;;;;;;7.17;4.00;;;12.00;99.90;;;;;;4127548;28;20097;-65
2021/09/05 02:05:10;;;;;;;5.50;3.70;;;12.00;99.90;;;;;;4126427;28;20034;-66
2021/09/05 02:07:11;;;;;;;6.27;3.77;;;12.00;99.90;;;;;;4127481;28;20042;-65
2021/09/05 02:09:12;;;;;;;7.03;4.00;;;12.00;99.90;;;;;;4126990;28;20050;-66
2021/09/05 02:11:13;;;;;;;5.97;4.13;;;12.10;99.90;;;;;;4127731;28;20100;-66
2021/09/05 02:13:15;;;;;;;7.70;4.20;;;12.00;99.90;;;;;;4126271;28;20038;-66
2021/09/05 02:15:16;;;;;;;4.20;3.57;;;12.00;99.90;;;;;;4126924;28;20100;-66
2021/09/05 02:17:17;;;;;;;7.00;3.97;;;12.00;99.90;;;;;;4126863;28;20033;-66
2021/09/05 02:19:18;;;;;;;8.23;3.70;;;12.00;99.90;;;;;;4127264;28;20030;-67
2021/09/05 02:21:19;;;;;;;6.93;3.87;;;12.00;99.90;;;;;;4126508;28;20078;-66
2021/09/05 02:23:20;;;;;;;6.33;4.10;;;12.00;99.90;;;;;;4126742;28;20038;-65
2021/09/05 02:25:21;;;;;;;5.67;4.10;;;12.00;99.90;;;;;;4127269;28;20089;-66
2021/09/05 02:27:23;;;;;;;6.30;4.00;;;12.00;99.90;;;;;;4126366;28;20080;-65
2021/09/05 02:29:24;;;;;;;6.50;4.00;;;12.00;99.90;;;;;;4127356;28;20544;-65
2021/09/05 02:31:25;;;;;;;6.30;4.13;;;11.90;99.90;;;;;;4125950;28;20030;-65
2021/09/05 02:33:26;;;;;;;6.63;4.10;;;11.90;99.90;;;;;;4127020;28;20779;-65
2021/09/05 02:35:27;;;;;;;6.10;4.53;;;11.90;99.90;;;;;;4126135;28;20018;-66
2021/09/05 02:37:28;;;;;;;5.63;4.20;;;11.80;99.90;;;;;;4127292;28;20088;-66
2021/09/05 02:39:30;;;;;;;5.77;3.77;;;11.80;99.90;;;;;;4125728;28;20085;-66
2021/09/05 02:41:31;;;;;;;7.83;4.10;;;11.90;99.90;;;;;;4127112;28;20035;-65
2021/09/05 02:43:32;;;;;;;6.07;4.77;;;11.80;99.90;;;;;;4125816;28;20037;-65
2021/09/05 02:45:33;;;;;;;5.60;3.90;;;11.80;99.90;;;;;;4126631;28;20541;-65
2021/09/05 02:47:34;;;;;;;5.87;4.07;;;11.80;99.90;;;;;;4125956;28;20031;-64
2021/09/05 02:49:36;;;;;;;6.93;4.47;;;11.80;99.90;;;;;;4126270;28;20097;-65
2021/09/05 02:51:39;;;;;;;7.53;4.17;;;11.80;99.90;;;;;;4125910;28;20027;-65
2021/09/05 02:53:40;;;;;;;6.33;3.80;;;11.70;99.90;;;;;;4126076;28;20430;-65
2021/09/05 02:55:42;;;;;;;9.20;5.83;;;11.60;99.90;;;;;;4126457;28;20074;-65
2021/09/05 02:57:43;;;;;;;8.27;6.73;;;11.50;99.90;;;;;;4125537;28;20038;-65
2021/09/05 02:59:44;;;;;;;10.93;8.20;;;11.40;99.90;;;;;;4126582;28;20058;-65
2021/09/05 03:01:46;;;;;;;13.23;8.37;;;11.30;99.90;;;;;;4125959;28;20477;-65
2021/09/05 03:03:47;;;;;;;16.80;10.37;;;11.30;99.90;;;;;;4125830;28;20104;-66
2021/09/05 03:05:48;;;;;;;18.13;9.97;;;11.20;99.90;;;;;;4125370;28;20069;-65
2021/09/05 03:07:50;;;;;;;16.67;8.97;;;11.20;99.90;;;;;;4126808;28;20038;-65
2021/09/05 03:09:51;;;;;;;12.27;8.20;;;11.10;99.90;;;;;;4125146;28;20050;-65
2021/09/05 03:11:52;;;;;;;13.53;9.17;;;10.90;99.90;;;;;;4126605;28;20774;-65
2021/09/05 03:13:53;;;;;;;13.20;6.27;;;10.80;99.90;;;;;;4125446;28;20108;-65
2021/09/05 03:15:54;;;;;;;12.40;6.07;;;10.80;99.90;;;;;;4126562;28;20038;-65
2021/09/05 03:17:56;;;;;;;9.43;6.00;;;10.70;99.90;;;;;;4125528;28;20105;-65
2021/09/05 03:19:57;;;;;;;9.40;5.57;;;10.60;99.90;;;;;;4126779;28;20039;-65
2021/09/05 03:21:58;;;;;;;11.13;5.70;;;10.50;99.90;;;;;;4126332;28;20888;-65
2021/09/05 03:23:59;;;;;;;13.43;6.30;;;10.50;99.90;;;;;;4125575;28;20106;-65
2021/09/05 03:26:00;;;;;;;11.13;5.40;;;10.40;99.90;;;;;;4126193;28;20014;-65
2021/09/05 03:28:01;;;;;;;10.97;6.07;;;10.40;99.90;;;;;;4125325;28;20061;-65
2021/09/05 03:30:04;;;;;;;11.30;5.50;;;10.30;99.90;;;;;;4126168;28;20042;-65
2021/09/05 03:32:06;;;;;;;13.37;5.53;;;10.30;99.90;;;;;;4125140;28;20084;-66
2021/09/05 03:34:07;;;;;;;7.57;5.00;;;10.30;99.90;;;;;;4126569;28;20038;-66
2021/09/05 03:36:08;;;;;;;10.00;5.23;;;10.30;99.90;;;;;;4125492;28;20038;-65
2021/09/05 03:38:09;;;;;;;9.57;5.40;;;10.30;99.90;;;;;;4126056;28;20077;-66
2021/09/05 03:40:13;;;;;;;10.37;5.77;;;10.30;99.90;;;;;;4124991;28;20394;-65
2021/09/05 03:42:14;;;;;;;9.03;5.97;;;10.30;99.90;;;;;;4126394;28;20031;-65
2021/09/05 03:44:15;;;;;;;7.10;5.37;;;10.20;99.90;;;;;;4124982;28;20096;-65
2021/09/05 03:46:16;;;;;;;9.27;5.60;;;10.20;99.90;;;;;;4125964;28;20081;-65
2021/09/05 03:48:17;;;;;;;10.97;6.27;;;10.20;99.90;;;;;;4124970;28;20089;-66
2021/09/05 03:50:18;;;;;;;12.10;6.00;;;10.10;99.90;;;;;;4126269;28;20030;-66
2021/09/05 03:52:19;;;;;;;11.40;6.13;;;10.10;99.90;;;;;;4125120;28;20026;-65
2021/09/05 03:54:20;;;;;;;10.77;5.60;;;10.10;99.90;;;;;;4125492;28;20034;-65
2021/09/05 03:56:21;;;;;;;13.83;7.37;;;10.00;99.90;;;;;;4125472;28;20086;-65
2021/09/05 03:58:23;;;;;;;11.33;5.70;;;10.00;99.90;;;;;;4125204;28;20058;-65
2021/09/05 04:00:24;;;;;;;13.73;7.17;;;9.90;99.90;;;;;;4125268;28;20471;-65
2021/09/05 04:02:25;;;;;;;12.27;6.00;;;9.90;99.90;;;;;;4124523;28;20089;-65
2021/09/05 04:04:27;;;;;;;11.13;6.87;;;9.90;99.90;;;;;;4125894;28;20433;-65
2021/09/05 04:06:28;;;;;;;8.90;6.00;;;10.00;99.90;;;;;;4124580;28;20373;-66
2021/09/05 04:08:31;;;;;;;14.27;7.27;;;10.00;99.90;;;;;;4125688;28;20026;-65
2021/09/05 04:10:36;;;;;;;16.83;7.33;;;10.10;99.90;;;;;;4124958;28;20556;-66
2021/09/05 04:12:40;;;;;;;11.07;7.20;;;10.10;99.90;;;;;;4126538;28;20098;-66
2021/09/05 04:14:41;;;;;;;16.07;7.80;;;10.20;99.90;;;;;;4123775;28;20081;-66
2021/09/05 04:16:43;;;;;;;12.73;7.37;;;10.30;99.90;;;;;;4125963;28;20073;-66
2021/09/05 04:18:44;;;;;;;17.20;8.50;;;10.30;99.90;;;;;;4124878;28;20042;-66
2021/09/05 04:20:45;;;;;;;15.80;8.17;;;10.40;99.90;;;;;;4125754;28;20084;-67
2021/09/05 04:22:46;;;;;;;14.30;8.23;;;10.50;99.90;;;;;;4124510;28;20089;-66
2021/09/05 04:24:48;;;;;;;16.40;8.33;;;10.50;99.90;;;;;;4139736;28;20041;-66
2021/09/05 04:26:50;;;;;;;13.97;7.90;;;10.50;99.90;;;;;;4125125;28;20042;-66
2021/09/05 04:28:51;;;;;;;15.57;7.70;;;10.50;99.90;;;;;;4124421;28;20092;-66
2021/09/05 04:30:52;;;;;;;13.07;7.90;;;10.70;99.90;;;;;;4125064;28;20030;-66
2021/09/05 04:32:53;;;;;;;13.30;8.57;;;10.80;99.90;;;;;;4123816;28;20441;-66
2021/09/05 04:34:54;;;;;;;13.57;7.83;;;11.00;99.90;;;;;;4125280;28;20073;-66
2021/09/05 04:36:55;;;;;;;14.07;7.50;;;11.30;99.90;;;;;;4124201;28;20030;-66
2021/09/05 04:38:56;;;;;;;12.83;7.03;;;11.70;99.90;;;;;;4125170;28;20541;-67
2021/09/05 04:40:57;;;;;;;15.07;7.07;;;11.80;99.90;;;;;;4124158;28;20721;-66
2021/09/05 04:42:58;;;;;;;13.87;7.03;;;11.90;99.90;;;;;;4125482;28;20081;-66
2021/09/05 04:45:00;;;;;;;10.93;6.90;;;12.10;99.90;;;;;;4123786;28;20038;-66
2021/09/05 04:47:02;;;;;;;10.07;7.30;;;12.50;99.90;;;;;;4125508;28;20465;-66
2021/09/05 04:49:03;;;;;;;11.73;6.77;;;12.80;99.90;;;;;;4124586;28;21015;-66
2021/09/05 04:51:04;;;;;;;12.20;6.30;;;13.40;99.90;;;;;;4124493;28;20109;-66
2021/09/05 04:53:05;;;;;;;12.30;6.97;;;13.70;99.90;;;;;;4124421;28;20089;-66
2021/09/05 04:55:06;;;;;;;12.07;7.17;;;13.90;99.90;;;;;;4123601;28;20085;-66
2021/09/05 04:57:08;;;;;;;11.60;7.57;;;14.10;99.90;;;;;;4124357;28;20030;-65
2021/09/05 04:59:09;;;;;;;15.67;7.93;;;14.10;99.90;;;;;;4124215;28;20058;-66
2021/09/05 05:01:10;;;;;;;12.30;7.40;;;14.10;99.90;;;;;;4124288;28;20038;-66
2021/09/05 05:03:11;;;;;;;8.80;6.47;;;14.10;99.90;;;;;;4123905;28;20081;-66
2021/09/05 05:05:12;;;;;;;11.90;6.73;;;14.40;99.90;;;;;;4125191;28;20455;-66
2021/09/05 05:07:13;;;;;;;14.27;6.73;;;14.90;99.90;;;;;;4124044;28;20109;-66
2021/09/05 05:09:16;;;;;;;13.17;6.43;;;15.40;99.90;;;;;;4124928;28;20054;-67
2021/09/05 05:11:17;;;;;;;11.48;7.07;;;15.80;99.90;;;;;;4123490;28;20068;-66
2021/09/05 05:13:18;;;;;;;15.13;6.85;;;16.10;99.90;;;;;;4124964;28;20537;-66
2021/09/05 05:15:19;;;;;;;11.98;6.40;;;16.50;99.90;;;;;;4123738;28;20065;-66
2021/09/05 05:17:20;;;;;;;14.50;5.82;;;17.00;99.90;;;;;;4125010;28;20104;-66
2021/09/05 05:19:21;;;;;;;12.00;5.82;;;17.50;99.90;;;;;;4124158;28;20537;-66
2021/09/05 05:21:26;;;;;;;11.95;6.30;;;17.80;99.90;;;;;;4124836;28;20093;-66
2021/09/05 05:23:29;;;;;;;9.75;6.35;;;18.10;99.90;;;;;;4123927;28;20026;-67
2021/09/05 05:25:30;;;;;;;11.07;5.38;;;18.30;99.90;;;;;;4124882;28;20026;-65
2021/09/05 05:27:31;;;;;;;9.10;5.05;;;18.40;99.90;;;;;;4126988;28;20038;-64
2021/09/05 05:29:32;;;;;;;8.50;5.47;;;18.80;99.90;;;;;;4127503;28;20097;-65
2021/09/05 05:31:33;;;;;;;9.63;5.43;;;19.20;99.90;;;;;;4127002;28;20097;-66
2021/09/05 05:33:34;;;;;;;9.68;5.95;;;19.50;99.90;;;;;;4127137;28;20038;-66
2021/09/05 05:35:36;;;;;;;8.70;4.93;;;19.70;99.90;;;;;;4127649;28;20392;-65
2021/09/05 05:37:37;;;;;;;5.85;4.90;;;19.40;99.90;;;;;;4126700;28;20030;-66
2021/09/05 05:39:38;;;;;;;8.43;6.15;;;19.50;99.90;;;;;;4127768;28;20038;-65
2021/09/05 05:41:39;;;;;;;7.15;5.13;;;19.90;99.90;;;;;;4126443;28;20557;-66
2021/09/05 05:43:40;;;;;;;7.47;4.93;;;20.10;99.90;;;;;;4128192;28;20038;-65
2021/09/05 05:45:42;;;;;;;9.23;4.65;;;20.40;99.90;;;;;;4126762;28;20045;-65
2021/09/05 05:47:47;;;;;;;7.13;4.95;;;20.60;99.10;;;;;;4127937;28;20817;-66
2021/09/05 05:49:48;;;;;;;6.57;4.50;;;20.20;98.70;;;;;;4125525;28;20054;-66
2021/09/05 05:51:49;;;;;;;7.18;4.85;;;19.40;99.10;;;;;;4127623;28;20038;-65
2021/09/05 05:53:50;;;;;;;5.25;4.68;;;19.60;99.60;;;;;;4126486;28;20088;-66
2021/09/05 05:55:51;;;;;;;6.32;3.97;;;20.10;99.10;;;;;;4127722;28;20042;-65
2021/09/05 05:57:52;;;;;;;8.38;4.05;;;20.60;98.30;;;;;;4126252;28;20026;-65
2021/09/05 05:59:53;;;;;;;8.55;5.72;;;21.00;97.70;;;;;;4126861;28;20042;-65
2021/09/05 06:01:55;;;;;;;9.10;5.82;;;21.20;97.00;;;;;;4126851;28;20061;-65
2021/09/05 06:03:56;;;;;;;7.68;6.47;;;21.30;96.60;;;;;;4126939;28;20030;-65
2021/09/05 06:05:57;;;;;;;8.90;4.93;;;21.30;96.70;;;;;;4127131;28;20085;-65
2021/09/05 06:07:58;;;;;;;8.75;4.32;;;21.30;96.20;;;;;;4124947;28;20116;-65
2021/09/05 06:09:59;;;;;;;7.13;4.20;;;21.70;96.10;;;;;;4126417;28;20585;-65
2021/09/05 06:12:00;;;;;;;5.15;3.15;;;21.90;95.80;;;;;;4126160;28;20065;-66
2021/09/05 06:14:01;;;;;;;7.93;3.90;;;22.10;95.30;;;;;;4127506;28;20038;-66
2021/09/05 06:16:03;;;;;;;6.18;3.80;;;22.30;94.90;;;;;;4125900;28;20046;-65
2021/09/05 06:18:04;;;;;;;6.05;3.80;;;22.10;94.80;;;;;;4127494;28;20479;-66
2021/09/05 06:20:09;;;;;;;4.43;3.45;;;22.10;94.70;;;;;;4126324;28;20065;-67
2021/09/05 06:22:10;;;;;;;7.82;4.22;;;22.10;94.40;;;;;;4112824;28;20033;-66
2021/09/05 06:24:12;;;;;;;5.35;3.42;;;21.80;94.60;;;;;;4123671;28;20038;-66
2021/09/05 06:26:13;;;;;;;10.25;4.22;;;21.90;94.70;;;;;;4125581;28;20042;-66
2021/09/05 06:28:14;;;;;;;5.78;3.63;;;21.80;94.50;;;;;;4124430;28;20089;-65
2021/09/05 06:30:15;;;;;;;8.13;3.13;;;22.00;94.50;;;;;;4124485;28;20535;-66
2021/09/05 06:32:16;;;;;;;4.55;3.42;;;22.50;94.00;;;;;;4120291;28;20038;-65
2021/09/05 06:34:17;;;;;;;6.88;3.67;;;22.50;93.50;;;;;;4124922;28;20042;-65
2021/09/05 06:36:18;;;;;;;9.02;3.30;;;22.60;93.40;;;;;;4125379;28;20054;-66
2021/09/05 06:38:19;;;;;;;6.97;3.15;;;23.10;93.00;;;;;;4122976;28;20100;-66
2021/09/05 06:40:20;;;;;;;4.38;3.58;;;23.20;92.80;;;;;;4125404;28;20845;-64
2021/09/05 06:42:22;;;;;;;7.03;3.92;;;23.10;92.60;;;;;;4118783;28;20439;-65
2021/09/05 06:44:23;;;;;;;5.55;3.85;;;23.10;92.60;;;;;;4125938;28;20172;-65
2021/09/05 06:46:24;;;;;;;5.65;3.63;;;23.00;92.80;;;;;;4124048;28;20554;-65
2021/09/05 06:48:25;;;;;;;8.15;3.55;;;23.30;92.50;;;;;;4125660;28;20034;-65
2021/09/05 06:50:27;;;;;;;5.50;3.38;;;23.40;92.10;;;;;;4123729;28;20097;-64
2021/09/05 06:52:28;;;;;;;5.03;3.33;;;23.30;92.00;;;;;;4120374;28;20106;-65
2021/09/05 06:54:29;;;;;;;5.25;3.30;;;23.20;92.00;;;;;;4124543;28;20034;-66
2021/09/05 06:56:30;;;;;;;4.50;3.33;;;23.10;92.00;;;;;;4124551;28;20042;-63
2021/09/05 06:58:31;;;;;;;4.07;3.17;;;22.70;92.00;;;;;;4124283;28;20038;-65
2021/09/05 07:00:32;;;;;;;7.55;3.28;;;22.40;92.40;;;;;;4123411;28;20659;-64
2021/09/05 07:02:33;;;;;;;6.50;3.50;;;22.50;92.40;;;;;;4120259;28;20046;-65
2021/09/05 07:04:36;;;;;;;6.78;3.90;;;22.60;92.30;;;;;;4124904;28;20042;-66
2021/09/05 07:06:38;;;;;;;6.07;3.17;;;22.80;92.30;;;;;;4123957;28;20176;-65
2021/09/05 07:08:40;;;;;;;8.35;2.95;;;22.40;92.10;;;;;;4123620;28;20588;-66
2021/09/05 07:10:41;;;;;;;6.80;3.25;;;22.20;92.50;;;;;;4125384;28;20047;-64
2021/09/05 07:12:43;;;;;;;4.40;3.25;;;21.90;92.70;;;;;;4118698;28;20046;-65
2021/09/05 07:14:47;;;;;;;5.97;3.35;;;21.70;92.90;;;;;;4125038;28;20438;-67
2021/09/05 07:16:48;;;;;;;3.58;2.80;;;21.50;93.00;;;;;;4124323;28;20030;-67
2021/09/05 07:18:49;;;;;;;6.75;3.20;;;21.20;93.30;;;;;;4125191;28;20104;-64
2021/09/05 07:20:50;;;;;;;3.53;3.20;;;21.00;93.50;;;;;;4124883;28;20092;-65
2021/09/05 07:22:52;;;;;;;3.70;2.55;;;20.90;93.60;;;;;;4126049;28;20030;-70
2021/09/05 07:24:53;;;;;;;4.70;2.80;;;21.10;93.50;;;;;;4125027;28;20023;-65
2021/09/05 07:26:54;;;;;;;5.35;2.78;;;21.20;93.40;;;;;;4126076;28;20081;-69
2021/09/05 07:28:55;;;;;;;7.95;3.05;;;21.20;93.30;;;;;;4125317;28;20026;-70
2021/09/05 07:30:56;;;;;;;6.60;2.88;;;21.10;93.30;;;;;;4125186;28;20047;-70
2021/09/05 07:32:57;;;;;;;5.07;3.15;;;21.20;93.30;;;;;;4125487;28;20030;-68
2021/09/05 07:34:59;;;;;;;5.00;3.75;;;21.50;93.10;;;;;;4124835;28;20067;-68
2021/09/05 07:37:00;;;;;;;4.30;3.33;;;21.60;92.90;;;;;;4125559;28;20026;-68
2021/09/05 07:39:01;;;;;;;6.82;3.70;;;21.90;92.80;;;;;;4124921;28;20089;-67
2021/09/05 07:41:02;;;;;;;4.95;3.30;;;22.10;92.50;;;;;;4126698;28;20054;-66
2021/09/05 07:43:03;;;;;;;4.82;3.10;;;22.10;92.50;;;;;;4125203;28;20466;-69
2021/09/05 07:45:05;;;;;;;6.32;4.28;;;21.90;92.60;;;;;;4125489;28;20085;-67
2021/09/05 07:47:06;;;;;;;7.55;4.10;;;21.80;92.80;;;;;;4125012;28;20906;-68
2021/09/05 07:49:07;;;;;;;4.97;3.65;;;21.30;93.00;;;;;;4125240;28;20557;-68
2021/09/05 07:51:08;;;;;;;5.55;3.92;;;21.10;93.30;;;;;;4124209;28;20046;-63
2021/09/05 07:53:09;;;;;;;5.13;3.72;;;21.20;93.40;;;;;;4126004;28;20034;-64
2021/09/05 07:55:12;;;;;;;4.90;3.70;;;21.30;93.30;;;;;;4124137;28;20038;-65
2021/09/05 07:57:13;;;;;;;6.68;3.63;;;21.20;93.40;;;;;;4122713;28;20050;-64
2021/09/05 07:59:14;;;;;;;7.25;3.90;;;21.10;93.60;;;;;;4123103;28;20077;-64
2021/09/05 08:01:15;;;;;;;4.80;3.83;;;20.90;93.70;;;;;;4124721;28;20026;-64
2021/09/05 08:03:16;;;;;;;8.27;4.10;;;20.90;93.90;;;;;;4124871;28;20174;-63
2021/09/05 08:05:18;;;;;;;5.93;3.97;;;20.80;94.10;;;;;;4124473;28;20034;-63
2021/09/05 08:07:19;;;;;;;6.18;4.13;;;20.90;94.20;;;;;;4124986;28;20076;-64
2021/09/05 08:09:20;;;;;;;5.97;4.68;;;20.80;94.50;;;;;;4123976;28;20092;-64
2021/09/05 08:11:21;;;;;;;7.68;4.60;;;21.00;94.50;;;;;;4125588;28;20026;-63
2021/09/05 08:13:22;;;;;;;8.27;4.20;;;20.90;94.50;;;;;;4124076;28;20062;-64
2021/09/05 08:15:24;;;;;;;7.82;4.50;;;20.80;94.80;;;;;;4124795;28;20034;-63
2021/09/05 08:17:25;;;;;;;7.15;4.88;;;20.70;95.10;;;;;;4124034;28;20026;-64
2021/09/05 08:19:27;;;;;;;6.88;4.07;;;20.70;95.50;;;;;;4125595;28;20545;-64
2021/09/05 08:21:28;;;;;;;7.97;4.25;;;20.70;95.40;;;;;;4124418;28;20080;-64
2021/09/05 08:23:29;;;;;;;6.43;4.47;;;21.00;95.20;;;;;;4125515;28;20045;-65
2021/09/05 08:25:30;;;;;;;7.30;4.72;;;20.70;95.30;;;;;;4124004;28;20081;-64
2021/09/05 08:27:32;;;;;;;8.60;4.50;;;20.80;95.40;;;;;;4123229;28;20042;-65
2021/09/05 08:29:34;;;;;;;9.70;4.63;;;20.90;95.30;;;;;;4124034;28;20018;-66
2021/09/05 08:31:35;;;;;;;7.47;4.72;;;21.00;95.30;;;;;;4124682;28;20080;-65
2021/09/05 08:33:36;;;;;;;10.55;4.90;;;21.20;95.20;;;;;;4124673;28;20651;-65
2021/09/05 08:35:37;;;;;;;6.95;4.85;;;21.20;95.00;;;;;;4124733;28;20494;-66
2021/09/05 08:37:40;;;;;;;6.72;4.15;;;21.10;95.20;;;;;;4124799;28;20505;-65
2021/09/05 08:39:41;;;;;;;7.85;5.10;;;21.20;95.20;;;;;;4123623;28;20031;-63
2021/09/05 08:41:43;;;;;;;18.70;5.95;;;21.60;95.00;;;;;;4124519;28;20145;-63
2021/09/05 08:43:45;;;;;;;8.55;5.28;;;21.70;94.70;;;;;;4124104;28;20042;-66
2021/09/05 08:45:48;;;;;;;10.80;5.20;;;21.60;94.70;;;;;;4124794;28;20042;-64
2021/09/05 08:47:50;;;;;;;8.00;5.40;;;21.50;94.70;;;;;;4123772;28;20089;-64
2021/09/05 08:49:52;;;;;;;11.60;5.03;;;21.60;94.60;;;;;;4125099;28;20042;-64
2021/09/05 08:51:54;;;;;;;11.35;4.35;;;21.60;94.50;;;;;;4123457;28;20479;-64
2021/09/05 08:53:55;;;;;;;6.85;4.35;;;21.80;94.60;;;;;;4124961;28;20550;-65
2021/09/05 08:55:57;;;;;;;6.18;4.32;;;21.90;94.40;;;;;;4123703;28;20113;-66
2021/09/05 08:57:58;;;;;;;8.73;4.97;;;21.80;94.50;;;;;;4124827;28;20030;-64
2021/09/05 08:59:59;;;;;;;5.65;4.10;;;21.90;94.50;;;;;;4123273;28;20136;-65
2021/09/05 09:02:00;;;;;;;7.13;5.00;;;22.00;94.30;;;;;;4124589;28;20449;-65
2021/09/05 09:04:10;;;;;;;6.32;4.72;;;21.70;94.60;;;;;;4124187;28;20423;-65
2021/09/05 09:06:18;;;;;;;6.80;4.73;;;21.50;95.10;;;;;;4124374;28;20038;-64
2021/09/05 09:08:21;;;;;;;7.70;4.55;;;21.60;95.00;;;;;;4123221;28;20141;-65
2021/09/05 09:10:22;;;;;;;8.65;4.90;;;21.80;95.00;;;;;;4123291;28;20080;-62
2021/09/05 09:12:39;;;;;;;6.93;4.10;;;21.90;94.90;;;;;;4124256;28;20089;-66
2021/09/05 09:14:45;;;;;;;8.10;4.55;;;21.60;95.00;;;;;;4124367;28;20050;-64
2021/09/05 09:16:47;;;;;;;6.28;4.70;;;21.60;95.30;;;;;;4124139;28;20584;-66
2021/09/05 09:18:52;;;;;;;6.28;4.13;;;21.80;95.10;;;;;;4123361;28;20061;-65
2021/09/05 09:20:54;;;;;;;5.20;3.97;;;22.00;94.70;;;;;;4124720;28;20030;-63
2021/09/05 09:23:32;;;;;;;6.28;4.57;;;22.00;94.60;;;;;;4123429;28;20089;-64
2021/09/05 09:25:33;;;;;;;6.35;4.85;;;21.90;94.50;;;;;;4088754;29;20467;-64
2021/09/05 09:27:34;;;;;;;6.88;4.85;;;22.00;94.50;;;;;;4108185;28;20043;-63
2021/09/05 09:29:36;;;;;;;7.75;4.28;;;22.00;94.30;;;;;;4123751;28;20486;-63
2021/09/05 09:31:38;;;;;;;6.72;4.35;;;22.10;94.30;;;;;;4121221;28;20042;-62
2021/09/05 09:33:40;;;;;;;5.32;4.03;;;22.20;94.20;;;;;;4124224;28;20034;-63
2021/09/05 09:35:50;;;;;;;6.80;4.03;;;22.50;94.00;;;;;;4123217;28;20062;-63
2021/09/05 09:37:51;;;;;;;7.53;4.60;;;22.50;93.20;;;;;;4122031;28;20042;-63
2021/09/05 09:39:59;;;;;;;8.27;4.47;;;22.30;93.50;;;;;;4115151;28;20042;-63
2021/09/05 09:42:00;;;;;;;8.35;4.55;;;22.30;93.40;;;;;;4124267;28;20038;-63
2021/09/05 09:44:06;;;;;;;7.05;4.28;;;22.40;93.40;;;;;;4122580;28;20046;-62
2021/09/05 09:46:13;;;;;;;6.45;4.45;;;22.50;93.20;;;;;;4123798;28;20034;-63
2021/09/05 09:48:27;;;;;;;7.18;4.88;;;22.50;92.90;;;;;;4122431;28;20085;-63
2021/09/05 09:50:28;;;;;;;7.53;4.40;;;22.50;92.50;;;;;;4124265;28;20445;-63
2021/09/05 09:52:30;;;;;;;7.40;3.90;;;22.40;92.70;;;;;;4122748;28;20034;-63
2021/09/05 09:54:36;;;;;;;4.82;3.75;;;22.10;92.70;;;;;;4124064;28;20452;-64
2021/09/05 09:56:39;;;;;;;6.75;4.13;;;21.90;92.80;;;;;;4122544;28;20116;-63
2021/09/05 09:58:40;;;;;;;6.38;4.50;;;21.70;93.10;;;;;;4124411;28;20035;-64
2021/09/05 10:00:42;;;;;;;6.00;4.18;;;22.00;93.20;;;;;;4121901;28;20050;-64
2021/09/05 10:02:44;;;;;;;5.30;4.05;;;22.20;92.80;;;;;;4121760;28;20112;-63
2021/09/05 10:04:49;;;;;;;7.35;4.30;;;22.50;92.70;;;;;;4123166;28;20972;-63
2021/09/05 10:06:50;;;;;;;6.10;4.13;;;22.70;92.50;;;;;;4122773;28;20022;-63
2021/09/05 10:08:55;;;;;;;5.57;4.30;;;22.70;92.30;;;;;;4123442;28;20081;-63
2021/09/05 10:10:58;;;;;;;8.65;4.00;;;22.60;92.00;;;;;;4123265;28;20183;-64
2021/09/05 10:13:02;;;;;;;5.60;4.43;;;22.50;92.00;;;;;;4125304;28;20077;-64
2021/09/05 10:15:04;;;;;;;7.32;4.53;;;22.60;92.10;;;;;;4125019;28;20403;-62
2021/09/05 10:17:09;;;;;;;8.10;4.75;;;22.70;92.20;;;;;;4126094;28;20537;-63
2021/09/05 10:19:11;;;;;;;7.85;4.47;;;23.00;92.30;;;;;;4124093;28;20077;-64
2021/09/05 10:21:18;;;;;;;6.88;4.85;;;23.00;92.00;;;;;;4123943;28;20105;-63
2021/09/05 10:23:36;;;;;;;6.90;4.53;;;22.80;91.80;;;;;;4116969;28;20050;-64
2021/09/05 10:25:37;;;;;;;8.95;4.55;;;22.60;91.70;;;;;;4127669;28;20046;-67
2021/09/05 10:27:44;;;;;;;7.85;5.07;;;22.10;92.20;;;;;;4126685;28;20372;-63
2021/09/05 10:30:08;;;;;;;10.05;5.10;;;21.90;92.50;;;;;;4126921;28;20105;-62
2021/09/05 10:32:17;;;;;;;8.93;4.60;;;21.80;92.80;;;;;;4124486;28;20892;-63
2021/09/05 10:34:37;;;;;;;6.43;4.63;;;21.60;93.00;;;;;;4125372;28;20832;-68